KITH/ITH METAR and TAF weather

Enter ICAO airport designator
Station Type Date Time Source
KITH METAR 2020/01/29 02:56 UTC NOAA

KITH 290256Z 33005KT 8SM -SN BKN008 OVC011 M03/M03 A2996 RMK AO2 SLP159 P0000 60003 T10281033 51012


Station Type Date Time Source
KITH Decoded METAR 2020/01/29 02:56 UTC NOAA

Ithaca, Ithaca Tompkins Regional Airport, NY, United States (KITH) 42-29-27N 076-27-30W
Jan 28, 2020 - 09:56 PM EST / 2020.01.29 0256 UTC
Wind: from the NNW (330 degrees) at 6 MPH (5 KT):0
Visibility: 8 mile(s):0
Sky conditions: overcast
Weather: light snow
Precipitation last hour: A trace
Temperature: 27.0 F (-2.8 C)
Windchill: 19 F (-7 C):1
Dew Point: 26.1 F (-3.3 C)
Relative Humidity: 96%
Pressure (altimeter): 29.96 in. Hg (1014 hPa)
Pressure tendency: 0.04 inches (1.2 hPa) higher than three hours ago
ob: KITH 290256Z 33005KT 8SM -SN BKN008 OVC011 M03/M03 A2996 RMK AO2 SLP159 P0000 60003 T10281033 51012
cycle: 3

Station Type Date Time Source
KITH TAF 2020/01/29 01:12 UTC NOAA

TAF
AMD KITH 290107Z 2901/2924 32008KT P6SM OVC007
TEMPO 2901/2904 1SM -FZDZSN BR
FM291400 33008KT P6SM SCT015
FM291900 33008KT P6SM OVC110

Example: see airport list